Annie Pit, United Kingdom
Current Conditions -  °F | °C
As of 7:50 AM on Friday 24 Oct 2014 (Local Time) from EGOM Reporting Station
Broken Clouds Broken Clouds  
Wind Chill: 41°   Ceiling: 1000
Heat Index: 46°   Visibility: 6mi
Dew Point: 46°   Wind: 12mph
Humidity: 100%   Direction: 230°SW
Pressure: 29.77"   Gusts: NA
Location:  54.65°N, 3.54°W
Report Text: EGOM 240650Z AUTO 23010KT 9999 SCT003/// BKN010/// 08/08 Q1008 RERA
Loading
Personal Weather Stations






























Interactive Weather Map
Tropical Storm Tracking
New forecast layout! Learn more

10-Day Weather Forecast

Advertisements
Track Severe Weather on mobile